sensor_id;sensor_type;location;lat;lon;timestamp;P1;durP1;ratioP1;P2;durP2;ratioP2
2123;SDS011;1068;52.460;13.528;2023-02-14T00:02:26;20.90;;;11.90;;
2123;SDS011;1068;52.460;13.528;2023-02-14T00:04:53;22.00;;;13.13;;
2123;SDS011;1068;52.460;13.528;2023-02-14T00:07:21;17.30;;;12.40;;
2123;SDS011;1068;52.460;13.528;2023-02-14T00:09:48;20.33;;;12.80;;
2123;SDS011;1068;52.460;13.528;2023-02-14T00:12:15;18.87;;;13.17;;
2123;SDS011;1068;52.460;13.528;2023-02-14T00:14:42;19.20;;;12.50;;
2123;SDS011;1068;52.460;13.528;2023-02-14T00:17:27;18.83;;;13.63;;
2123;SDS011;1068;52.460;13.528;2023-02-14T00:19:54;18.30;;;12.20;;
2123;SDS011;1068;52.460;13.528;2023-02-14T00:22:22;18.10;;;11.30;;
2123;SDS011;1068;52.460;13.528;2023-02-14T00:24:49;18.40;;;13.03;;
2123;SDS011;1068;52.460;13.528;2023-02-14T00:27:16;16.77;;;11.70;;
2123;SDS011;1068;52.460;13.528;2023-02-14T00:29:43;20.90;;;13.40;;
2123;SDS011;1068;52.460;13.528;2023-02-14T00:32:10;17.27;;;12.47;;
2123;SDS011;1068;52.460;13.528;2023-02-14T00:34:37;18.87;;;13.07;;
2123;SDS011;1068;52.460;13.528;2023-02-14T00:37:05;18.90;;;12.93;;
2123;SDS011;1068;52.460;13.528;2023-02-14T00:39:33;22.90;;;12.90;;
2123;SDS011;1068;52.460;13.528;2023-02-14T00:42:00;18.83;;;12.57;;
2123;SDS011;1068;52.460;13.528;2023-02-14T00:44:27;20.50;;;12.73;;
2123;SDS011;1068;52.460;13.528;2023-02-14T00:46:54;17.70;;;13.10;;
2123;SDS011;1068;52.460;13.528;2023-02-14T00:49:21;18.93;;;12.33;;
2123;SDS011;1068;52.460;13.528;2023-02-14T00:51:48;17.43;;;12.20;;
2123;SDS011;1068;52.460;13.528;2023-02-14T00:54:15;17.17;;;11.83;;
2123;SDS011;1068;52.460;13.528;2023-02-14T00:56:43;20.00;;;12.17;;
2123;SDS011;1068;52.460;13.528;2023-02-14T00:59:10;20.97;;;12.03;;
2123;SDS011;1068;52.460;13.528;2023-02-14T01:01:37;18.10;;;11.97;;
2123;SDS011;1068;52.460;13.528;2023-02-14T01:04:04;18.63;;;11.70;;
2123;SDS011;1068;52.460;13.528;2023-02-14T01:06:32;20.00;;;13.23;;
2123;SDS011;1068;52.460;13.528;2023-02-14T01:08:59;19.87;;;12.83;;
2123;SDS011;1068;52.460;13.528;2023-02-14T01:11:26;18.30;;;12.83;;
2123;SDS011;1068;52.460;13.528;2023-02-14T01:13:55;22.10;;;12.90;;
2123;SDS011;1068;52.460;13.528;2023-02-14T01:16:23;20.23;;;12.27;;
2123;SDS011;1068;52.460;13.528;2023-02-14T01:18:50;20.30;;;12.10;;
2123;SDS011;1068;52.460;13.528;2023-02-14T01:21:18;18.50;;;11.60;;
2123;SDS011;1068;52.460;13.528;2023-02-14T01:23:46;17.30;;;12.67;;
2123;SDS011;1068;52.460;13.528;2023-02-14T01:26:13;17.87;;;12.20;;
2123;SDS011;1068;52.460;13.528;2023-02-14T01:28:41;16.40;;;11.17;;
2123;SDS011;1068;52.460;13.528;2023-02-14T01:31:11;19.40;;;11.90;;
2123;SDS011;1068;52.460;13.528;2023-02-14T01:33:38;18.43;;;10.77;;
2123;SDS011;1068;52.460;13.528;2023-02-14T01:36:06;17.13;;;11.43;;
2123;SDS011;1068;52.460;13.528;2023-02-14T01:38:33;21.27;;;11.90;;
2123;SDS011;1068;52.460;13.528;2023-02-14T01:41:00;20.10;;;12.30;;
2123;SDS011;1068;52.460;13.528;2023-02-14T01:43:27;17.03;;;11.83;;
2123;SDS011;1068;52.460;13.528;2023-02-14T01:45:54;16.17;;;11.77;;
2123;SDS011;1068;52.460;13.528;2023-02-14T01:48:22;18.07;;;11.70;;
2123;SDS011;1068;52.460;13.528;2023-02-14T01:50:50;18.73;;;10.70;;
2123;SDS011;1068;52.460;13.528;2023-02-14T01:53:18;17.40;;;11.63;;
2123;SDS011;1068;52.460;13.528;2023-02-14T01:55:48;15.50;;;10.90;;
2123;SDS011;1068;52.460;13.528;2023-02-14T01:58:17;16.40;;;11.50;;
2123;SDS011;1068;52.460;13.528;2023-02-14T02:00:45;15.77;;;10.83;;
2123;SDS011;1068;52.460;13.528;2023-02-14T02:03:27;15.20;;;9.70;;
2123;SDS011;1068;52.460;13.528;2023-02-14T02:05:57;16.10;;;10.50;;
2123;SDS011;1068;52.460;13.528;2023-02-14T02:08:25;15.27;;;10.60;;
2123;SDS011;1068;52.460;13.528;2023-02-14T02:10:52;18.90;;;12.10;;
2123;SDS011;1068;52.460;13.528;2023-02-14T02:13:19;16.23;;;11.20;;
2123;SDS011;1068;52.460;13.528;2023-02-14T02:15:49;19.43;;;11.63;;
2123;SDS011;1068;52.460;13.528;2023-02-14T02:18:21;14.97;;;10.53;;
2123;SDS011;1068;52.460;13.528;2023-02-14T02:21:05;17.83;;;9.80;;
2123;SDS011;1068;52.460;13.528;2023-02-14T02:23:51;15.80;;;10.33;;
2123;SDS011;1068;52.460;13.528;2023-02-14T02:29:19;18.43;;;12.80;;
2123;SDS011;1068;52.460;13.528;2023-02-14T02:31:55;16.17;;;11.40;;
2123;SDS011;1068;52.460;13.528;2023-02-14T02:34:34;16.60;;;11.37;;
2123;SDS011;1068;52.460;13.528;2023-02-14T02:37:09;17.43;;;12.47;;
2123;SDS011;1068;52.460;13.528;2023-02-14T02:39:40;17.57;;;11.63;;
2123;SDS011;1068;52.460;13.528;2023-02-14T02:42:15;15.10;;;11.47;;
2123;SDS011;1068;52.460;13.528;2023-02-14T02:44:49;17.10;;;11.13;;
2123;SDS011;1068;52.460;13.528;2023-02-14T02:47:18;19.27;;;10.97;;
2123;SDS011;1068;52.460;13.528;2023-02-14T02:49:51;20.10;;;11.97;;
2123;SDS011;1068;52.460;13.528;2023-02-14T02:52:40;19.70;;;12.13;;
2123;SDS011;1068;52.460;13.528;2023-02-14T02:55:28;18.80;;;12.30;;
2123;SDS011;1068;52.460;13.528;2023-02-14T02:58:18;16.37;;;11.37;;
2123;SDS011;1068;52.460;13.528;2023-02-14T03:00:44;18.10;;;10.33;;
2123;SDS011;1068;52.460;13.528;2023-02-14T03:03:11;21.40;;;12.47;;
2123;SDS011;1068;52.460;13.528;2023-02-14T03:05:56;18.03;;;11.50;;
2123;SDS011;1068;52.460;13.528;2023-02-14T03:08:25;16.60;;;10.97;;
2123;SDS011;1068;52.460;13.528;2023-02-14T03:10:52;18.40;;;12.30;;
2123;SDS011;1068;52.460;13.528;2023-02-14T03:13:24;18.83;;;11.50;;
2123;SDS011;1068;52.460;13.528;2023-02-14T03:16:07;18.77;;;11.00;;
2123;SDS011;1068;52.460;13.528;2023-02-14T03:18:40;20.17;;;12.20;;
2123;SDS011;1068;52.460;13.528;2023-02-14T03:21:27;19.07;;;11.50;;
2123;SDS011;1068;52.460;13.528;2023-02-14T03:24:00;17.67;;;11.77;;
2123;SDS011;1068;52.460;13.528;2023-02-14T03:26:32;18.77;;;11.10;;
2123;SDS011;1068;52.460;13.528;2023-02-14T03:29:00;17.57;;;10.43;;
2123;SDS011;1068;52.460;13.528;2023-02-14T03:31:32;15.80;;;11.07;;
2123;SDS011;1068;52.460;13.528;2023-02-14T03:34:03;16.50;;;10.87;;
2123;SDS011;1068;52.460;13.528;2023-02-14T03:36:35;13.53;;;9.47;;
2123;SDS011;1068;52.460;13.528;2023-02-14T03:39:06;14.00;;;10.00;;
2123;SDS011;1068;52.460;13.528;2023-02-14T03:41:36;14.70;;;10.77;;
2123;SDS011;1068;52.460;13.528;2023-02-14T03:44:06;13.10;;;10.40;;
2123;SDS011;1068;52.460;13.528;2023-02-14T03:46:36;17.40;;;11.50;;
2123;SDS011;1068;52.460;13.528;2023-02-14T03:49:04;18.77;;;11.43;;
2123;SDS011;1068;52.460;13.528;2023-02-14T03:51:32;19.83;;;13.33;;
2123;SDS011;1068;52.460;13.528;2023-02-14T03:54:00;18.87;;;11.57;;
2123;SDS011;1068;52.460;13.528;2023-02-14T03:56:31;17.80;;;11.50;;
2123;SDS011;1068;52.460;13.528;2023-02-14T03:59:00;20.23;;;10.70;;
2123;SDS011;1068;52.460;13.528;2023-02-14T04:01:31;15.27;;;11.10;;
2123;SDS011;1068;52.460;13.528;2023-02-14T04:04:00;16.40;;;11.17;;
2123;SDS011;1068;52.460;13.528;2023-02-14T04:06:28;17.30;;;11.67;;
2123;SDS011;1068;52.460;13.528;2023-02-14T04:08:55;18.10;;;12.30;;
2123;SDS011;1068;52.460;13.528;2023-02-14T04:11:22;18.60;;;11.13;;
2123;SDS011;1068;52.460;13.528;2023-02-14T04:13:50;18.43;;;11.83;;
2123;SDS011;1068;52.460;13.528;2023-02-14T04:16:17;18.03;;;12.80;;
2123;SDS011;1068;52.460;13.528;2023-02-14T04:18:44;17.60;;;12.27;;
2123;SDS011;1068;52.460;13.528;2023-02-14T04:21:28;20.23;;;11.53;;
2123;SDS011;1068;52.460;13.528;2023-02-14T04:23:55;21.83;;;12.30;;
2123;SDS011;1068;52.460;13.528;2023-02-14T04:26:22;19.90;;;12.53;;
2123;SDS011;1068;52.460;13.528;2023-02-14T04:28:50;19.00;;;12.23;;
2123;SDS011;1068;52.460;13.528;2023-02-14T04:31:17;16.67;;;10.87;;
2123;SDS011;1068;52.460;13.528;2023-02-14T04:33:44;18.57;;;11.60;;
2123;SDS011;1068;52.460;13.528;2023-02-14T04:36:12;20.13;;;13.80;;
2123;SDS011;1068;52.460;13.528;2023-02-14T04:38:39;19.80;;;11.77;;
2123;SDS011;1068;52.460;13.528;2023-02-14T04:41:05;19.47;;;12.37;;
2123;SDS011;1068;52.460;13.528;2023-02-14T04:43:32;21.23;;;13.17;;
2123;SDS011;1068;52.460;13.528;2023-02-14T04:46:01;25.60;;;13.47;;
2123;SDS011;1068;52.460;13.528;2023-02-14T04:48:28;18.20;;;11.87;;
2123;SDS011;1068;52.460;13.528;2023-02-14T04:50:54;18.50;;;11.50;;
2123;SDS011;1068;52.460;13.528;2023-02-14T04:53:21;17.70;;;10.97;;
2123;SDS011;1068;52.460;13.528;2023-02-14T04:55:48;20.37;;;11.53;;
2123;SDS011;1068;52.460;13.528;2023-02-14T04:58:15;18.07;;;10.80;;
2123;SDS011;1068;52.460;13.528;2023-02-14T05:00:42;15.87;;;10.93;;
2123;SDS011;1068;52.460;13.528;2023-02-14T05:03:10;17.63;;;11.80;;
2123;SDS011;1068;52.460;13.528;2023-02-14T05:05:37;18.30;;;12.93;;
2123;SDS011;1068;52.460;13.528;2023-02-14T05:08:04;20.00;;;11.83;;
2123;SDS011;1068;52.460;13.528;2023-02-14T05:10:31;17.37;;;11.97;;
2123;SDS011;1068;52.460;13.528;2023-02-14T05:12:59;14.77;;;10.87;;
2123;SDS011;1068;52.460;13.528;2023-02-14T05:15:26;18.40;;;12.07;;
2123;SDS011;1068;52.460;13.528;2023-02-14T05:17:53;19.20;;;13.07;;
2123;SDS011;1068;52.460;13.528;2023-02-14T05:20:26;20.03;;;12.50;;
2123;SDS011;1068;52.460;13.528;2023-02-14T05:22:53;16.07;;;11.60;;
2123;SDS011;1068;52.460;13.528;2023-02-14T05:25:20;18.10;;;12.07;;
2123;SDS011;1068;52.460;13.528;2023-02-14T05:27:47;18.83;;;12.57;;
2123;SDS011;1068;52.460;13.528;2023-02-14T05:30:14;14.27;;;11.13;;
2123;SDS011;1068;52.460;13.528;2023-02-14T05:32:41;18.27;;;12.67;;
2123;SDS011;1068;52.460;13.528;2023-02-14T05:35:08;15.60;;;11.50;;
2123;SDS011;1068;52.460;13.528;2023-02-14T05:37:36;20.73;;;10.93;;
2123;SDS011;1068;52.460;13.528;2023-02-14T05:40:04;18.23;;;11.60;;
2123;SDS011;1068;52.460;13.528;2023-02-14T05:42:32;21.40;;;12.13;;
2123;SDS011;1068;52.460;13.528;2023-02-14T05:44:59;23.57;;;12.80;;
2123;SDS011;1068;52.460;13.528;2023-02-14T05:47:26;22.37;;;12.47;;
2123;SDS011;1068;52.460;13.528;2023-02-14T05:49:53;22.43;;;13.50;;
2123;SDS011;1068;52.460;13.528;2023-02-14T05:52:19;19.23;;;12.80;;
2123;SDS011;1068;52.460;13.528;2023-02-14T05:54:48;17.60;;;12.13;;
2123;SDS011;1068;52.460;13.528;2023-02-14T05:57:15;18.60;;;12.27;;
2123;SDS011;1068;52.460;13.528;2023-02-14T05:59:42;20.70;;;11.97;;
2123;SDS011;1068;52.460;13.528;2023-02-14T06:02:09;17.00;;;11.57;;
2123;SDS011;1068;52.460;13.528;2023-02-14T06:04:36;20.07;;;12.87;;
2123;SDS011;1068;52.460;13.528;2023-02-14T06:07:03;20.00;;;13.40;;
2123;SDS011;1068;52.460;13.528;2023-02-14T06:09:30;22.03;;;14.00;;
2123;SDS011;1068;52.460;13.528;2023-02-14T06:11:58;18.37;;;13.07;;
2123;SDS011;1068;52.460;13.528;2023-02-14T06:14:25;21.00;;;13.67;;
2123;SDS011;1068;52.460;13.528;2023-02-14T06:16:52;20.10;;;13.07;;
2123;SDS011;1068;52.460;13.528;2023-02-14T06:19:19;20.00;;;12.47;;
2123;SDS011;1068;52.460;13.528;2023-02-14T06:21:46;21.53;;;12.17;;
2123;SDS011;1068;52.460;13.528;2023-02-14T06:24:13;20.87;;;13.10;;
2123;SDS011;1068;52.460;13.528;2023-02-14T06:26:40;18.03;;;12.57;;
2123;SDS011;1068;52.460;13.528;2023-02-14T06:29:08;21.37;;;11.97;;
2123;SDS011;1068;52.460;13.528;2023-02-14T06:31:35;18.67;;;13.17;;
2123;SDS011;1068;52.460;13.528;2023-02-14T06:34:02;22.93;;;13.67;;
2123;SDS011;1068;52.460;13.528;2023-02-14T06:36:29;21.60;;;12.27;;
2123;SDS011;1068;52.460;13.528;2023-02-14T06:38:56;21.20;;;14.00;;
2123;SDS011;1068;52.460;13.528;2023-02-14T06:41:23;19.57;;;12.90;;
2123;SDS011;1068;52.460;13.528;2023-02-14T06:43:50;15.50;;;11.70;;
2123;SDS011;1068;52.460;13.528;2023-02-14T06:46:18;18.67;;;13.13;;
2123;SDS011;1068;52.460;13.528;2023-02-14T06:48:45;20.13;;;12.30;;
2123;SDS011;1068;52.460;13.528;2023-02-14T06:51:12;18.07;;;12.67;;
2123;SDS011;1068;52.460;13.528;2023-02-14T06:53:39;21.03;;;12.63;;
2123;SDS011;1068;52.460;13.528;2023-02-14T06:56:06;21.23;;;14.03;;
2123;SDS011;1068;52.460;13.528;2023-02-14T06:58:33;23.43;;;14.13;;
2123;SDS011;1068;52.460;13.528;2023-02-14T07:01:00;19.90;;;12.23;;
2123;SDS011;1068;52.460;13.528;2023-02-14T07:03:28;17.20;;;11.00;;
2123;SDS011;1068;52.460;13.528;2023-02-14T07:05:56;20.93;;;11.90;;
2123;SDS011;1068;52.460;13.528;2023-02-14T07:08:23;21.93;;;15.03;;
2123;SDS011;1068;52.460;13.528;2023-02-14T07:10:50;21.47;;;14.37;;
2123;SDS011;1068;52.460;13.528;2023-02-14T07:13:17;21.20;;;14.17;;
2123;SDS011;1068;52.460;13.528;2023-02-14T07:15:44;21.80;;;13.73;;
2123;SDS011;1068;52.460;13.528;2023-02-14T07:18:10;20.37;;;12.50;;
2123;SDS011;1068;52.460;13.528;2023-02-14T07:20:39;17.17;;;12.90;;
2123;SDS011;1068;52.460;13.528;2023-02-14T07:23:06;17.60;;;12.97;;
2123;SDS011;1068;52.460;13.528;2023-02-14T07:25:33;17.53;;;12.73;;
2123;SDS011;1068;52.460;13.528;2023-02-14T07:27:59;22.53;;;14.90;;
2123;SDS011;1068;52.460;13.528;2023-02-14T07:30:28;26.87;;;16.80;;
2123;SDS011;1068;52.460;13.528;2023-02-14T07:32:55;23.93;;;14.97;;
2123;SDS011;1068;52.460;13.528;2023-02-14T07:35:22;25.47;;;14.50;;
2123;SDS011;1068;52.460;13.528;2023-02-14T07:37:50;22.07;;;15.73;;
2123;SDS011;1068;52.460;13.528;2023-02-14T07:40:17;21.80;;;13.83;;
2123;SDS011;1068;52.460;13.528;2023-02-14T07:42:50;22.43;;;14.13;;
2123;SDS011;1068;52.460;13.528;2023-02-14T07:45:17;19.70;;;13.80;;
2123;SDS011;1068;52.460;13.528;2023-02-14T07:47:46;20.77;;;13.43;;
2123;SDS011;1068;52.460;13.528;2023-02-14T07:50:13;25.83;;;14.00;;
2123;SDS011;1068;52.460;13.528;2023-02-14T07:52:40;23.27;;;15.47;;
2123;SDS011;1068;52.460;13.528;2023-02-14T07:55:08;20.03;;;14.27;;
2123;SDS011;1068;52.460;13.528;2023-02-14T07:57:35;23.23;;;14.50;;
2123;SDS011;1068;52.460;13.528;2023-02-14T08:00:02;20.27;;;13.33;;
2123;SDS011;1068;52.460;13.528;2023-02-14T08:02:29;20.60;;;14.60;;
2123;SDS011;1068;52.460;13.528;2023-02-14T08:04:56;18.93;;;13.43;;
2123;SDS011;1068;52.460;13.528;2023-02-14T08:07:23;19.97;;;12.10;;
2123;SDS011;1068;52.460;13.528;2023-02-14T08:09:50;23.03;;;14.87;;
2123;SDS011;1068;52.460;13.528;2023-02-14T08:12:18;23.47;;;12.37;;
2123;SDS011;1068;52.460;13.528;2023-02-14T08:15:02;22.23;;;14.07;;
2123;SDS011;1068;52.460;13.528;2023-02-14T08:17:43;19.50;;;12.80;;
2123;SDS011;1068;52.460;13.528;2023-02-14T08:20:10;21.03;;;13.10;;
2123;SDS011;1068;52.460;13.528;2023-02-14T08:22:38;21.10;;;13.73;;
2123;SDS011;1068;52.460;13.528;2023-02-14T08:25:05;21.70;;;14.30;;
2123;SDS011;1068;52.460;13.528;2023-02-14T08:27:33;20.67;;;12.53;;
2123;SDS011;1068;52.460;13.528;2023-02-14T08:30:00;16.60;;;12.50;;
2123;SDS011;1068;52.460;13.528;2023-02-14T08:32:27;21.57;;;12.87;;
2123;SDS011;1068;52.460;13.528;2023-02-14T08:34:54;20.80;;;13.10;;
2123;SDS011;1068;52.460;13.528;2023-02-14T08:37:21;27.23;;;14.70;;
2123;SDS011;1068;52.460;13.528;2023-02-14T08:39:48;21.70;;;13.07;;
2123;SDS011;1068;52.460;13.528;2023-02-14T08:42:15;25.87;;;14.77;;
2123;SDS011;1068;52.460;13.528;2023-02-14T08:44:43;23.90;;;14.80;;
2123;SDS011;1068;52.460;13.528;2023-02-14T08:47:10;22.77;;;14.77;;
2123;SDS011;1068;52.460;13.528;2023-02-14T08:49:37;25.00;;;14.80;;
2123;SDS011;1068;52.460;13.528;2023-02-14T08:52:04;24.40;;;15.60;;
2123;SDS011;1068;52.460;13.528;2023-02-14T08:54:31;23.53;;;14.10;;
2123;SDS011;1068;52.460;13.528;2023-02-14T08:56:58;29.50;;;14.53;;
2123;SDS011;1068;52.460;13.528;2023-02-14T08:59:27;21.00;;;14.13;;
2123;SDS011;1068;52.460;13.528;2023-02-14T09:01:55;21.50;;;14.50;;
2123;SDS011;1068;52.460;13.528;2023-02-14T09:04:22;23.60;;;15.63;;
2123;SDS011;1068;52.460;13.528;2023-02-14T09:06:49;21.37;;;14.40;;
2123;SDS011;1068;52.460;13.528;2023-02-14T09:09:16;22.00;;;13.50;;
2123;SDS011;1068;52.460;13.528;2023-02-14T09:11:43;22.13;;;14.27;;
2123;SDS011;1068;52.460;13.528;2023-02-14T09:14:10;23.90;;;15.30;;
2123;SDS011;1068;52.460;13.528;2023-02-14T09:16:37;20.70;;;13.60;;
2123;SDS011;1068;52.460;13.528;2023-02-14T09:19:06;22.83;;;15.10;;
2123;SDS011;1068;52.460;13.528;2023-02-14T09:21:33;20.53;;;14.27;;
2123;SDS011;1068;52.460;13.528;2023-02-14T09:24:00;21.67;;;14.40;;
2123;SDS011;1068;52.460;13.528;2023-02-14T09:26:26;26.30;;;15.80;;
2123;SDS011;1068;52.460;13.528;2023-02-14T09:28:53;21.90;;;13.60;;
2123;SDS011;1068;52.460;13.528;2023-02-14T09:31:22;20.97;;;14.60;;
2123;SDS011;1068;52.460;13.528;2023-02-14T09:33:49;18.40;;;13.63;;
2123;SDS011;1068;52.460;13.528;2023-02-14T09:36:18;22.57;;;16.17;;
2123;SDS011;1068;52.460;13.528;2023-02-14T09:38:45;18.93;;;14.00;;
2123;SDS011;1068;52.460;13.528;2023-02-14T09:41:22;23.37;;;13.97;;
2123;SDS011;1068;52.460;13.528;2023-02-14T09:43:57;20.30;;;13.80;;
2123;SDS011;1068;52.460;13.528;2023-02-14T09:46:25;21.37;;;14.73;;
2123;SDS011;1068;52.460;13.528;2023-02-14T09:48:52;25.80;;;15.73;;
2123;SDS011;1068;52.460;13.528;2023-02-14T09:51:22;22.27;;;15.17;;
2123;SDS011;1068;52.460;13.528;2023-02-14T09:53:50;24.97;;;16.23;;
2123;SDS011;1068;52.460;13.528;2023-02-14T09:56:18;23.53;;;15.30;;
2123;SDS011;1068;52.460;13.528;2023-02-14T09:58:48;22.37;;;13.93;;
2123;SDS011;1068;52.460;13.528;2023-02-14T10:01:17;25.67;;;15.95;;
2123;SDS011;1068;52.460;13.528;2023-02-14T10:04:11;25.60;;;16.73;;
2123;SDS011;1068;52.460;13.528;2023-02-14T10:06:47;25.37;;;14.97;;
2123;SDS011;1068;52.460;13.528;2023-02-14T10:09:18;27.00;;;16.10;;
2123;SDS011;1068;52.460;13.528;2023-02-14T10:11:47;26.00;;;15.70;;
2123;SDS011;1068;52.460;13.528;2023-02-14T10:14:15;22.83;;;15.50;;
2123;SDS011;1068;52.460;13.528;2023-02-14T10:16:43;23.93;;;15.47;;
2123;SDS011;1068;52.460;13.528;2023-02-14T10:19:14;30.63;;;16.40;;
2123;SDS011;1068;52.460;13.528;2023-02-14T10:21:49;24.30;;;16.07;;
2123;SDS011;1068;52.460;13.528;2023-02-14T10:24:20;23.87;;;15.70;;
2123;SDS011;1068;52.460;13.528;2023-02-14T10:26:49;26.37;;;16.47;;
2123;SDS011;1068;52.460;13.528;2023-02-14T10:29:17;20.53;;;14.23;;
2123;SDS011;1068;52.460;13.528;2023-02-14T10:31:45;20.70;;;14.70;;
2123;SDS011;1068;52.460;13.528;2023-02-14T10:34:20;30.10;;;15.53;;
2123;SDS011;1068;52.460;13.528;2023-02-14T10:36:53;25.70;;;15.97;;
2123;SDS011;1068;52.460;13.528;2023-02-14T10:39:33;18.73;;;14.70;;
2123;SDS011;1068;52.460;13.528;2023-02-14T10:42:03;23.93;;;15.50;;
2123;SDS011;1068;52.460;13.528;2023-02-14T10:44:37;27.37;;;14.93;;
2123;SDS011;1068;52.460;13.528;2023-02-14T10:47:08;24.03;;;16.93;;
2123;SDS011;1068;52.460;13.528;2023-02-14T10:49:39;22.63;;;16.43;;
2123;SDS011;1068;52.460;13.528;2023-02-14T10:52:14;25.27;;;17.20;;
2123;SDS011;1068;52.460;13.528;2023-02-14T10:54:44;22.90;;;16.40;;
2123;SDS011;1068;52.460;13.528;2023-02-14T10:57:13;22.27;;;14.47;;
2123;SDS011;1068;52.460;13.528;2023-02-14T10:59:43;24.10;;;15.20;;
2123;SDS011;1068;52.460;13.528;2023-02-14T11:02:12;25.80;;;14.50;;
2123;SDS011;1068;52.460;13.528;2023-02-14T11:04:41;21.67;;;14.97;;
2123;SDS011;1068;52.460;13.528;2023-02-14T11:07:11;20.40;;;14.33;;
2123;SDS011;1068;52.460;13.528;2023-02-14T11:09:38;20.80;;;15.87;;
2123;SDS011;1068;52.460;13.528;2023-02-14T11:12:06;22.00;;;14.67;;
2123;SDS011;1068;52.460;13.528;2023-02-14T11:14:34;36.67;;;16.47;;
2123;SDS011;1068;52.460;13.528;2023-02-14T11:19:54;18.30;;;14.90;;
2123;SDS011;1068;52.460;13.528;2023-02-14T11:22:27;26.73;;;16.47;;
2123;SDS011;1068;52.460;13.528;2023-02-14T11:25:01;24.10;;;16.10;;
2123;SDS011;1068;52.460;13.528;2023-02-14T11:27:29;23.63;;;15.37;;
2123;SDS011;1068;52.460;13.528;2023-02-14T11:29:57;20.23;;;14.37;;
2123;SDS011;1068;52.460;13.528;2023-02-14T11:32:26;26.30;;;17.03;;
2123;SDS011;1068;52.460;13.528;2023-02-14T11:34:54;25.00;;;16.77;;
2123;SDS011;1068;52.460;13.528;2023-02-14T11:37:26;21.37;;;15.90;;
2123;SDS011;1068;52.460;13.528;2023-02-14T11:39:54;20.90;;;15.17;;
2123;SDS011;1068;52.460;13.528;2023-02-14T11:42:33;21.13;;;16.00;;
2123;SDS011;1068;52.460;13.528;2023-02-14T11:45:01;20.50;;;14.83;;
2123;SDS011;1068;52.460;13.528;2023-02-14T11:47:30;24.10;;;16.37;;
2123;SDS011;1068;52.460;13.528;2023-02-14T11:49:58;20.30;;;14.70;;
2123;SDS011;1068;52.460;13.528;2023-02-14T11:52:25;24.43;;;15.17;;
2123;SDS011;1068;52.460;13.528;2023-02-14T11:54:53;23.67;;;16.03;;
2123;SDS011;1068;52.460;13.528;2023-02-14T11:57:21;23.00;;;16.00;;
2123;SDS011;1068;52.460;13.528;2023-02-14T11:59:53;21.40;;;15.43;;
2123;SDS011;1068;52.460;13.528;2023-02-14T12:02:22;20.53;;;14.80;;
2123;SDS011;1068;52.460;13.528;2023-02-14T12:04:51;25.07;;;16.37;;
2123;SDS011;1068;52.460;13.528;2023-02-14T12:07:20;24.07;;;16.27;;
2123;SDS011;1068;52.460;13.528;2023-02-14T12:10:05;22.47;;;15.20;;
2123;SDS011;1068;52.460;13.528;2023-02-14T12:12:33;24.63;;;15.80;;
2123;SDS011;1068;52.460;13.528;2023-02-14T12:15:16;22.47;;;15.17;;
2123;SDS011;1068;52.460;13.528;2023-02-14T12:17:46;19.00;;;14.57;;
2123;SDS011;1068;52.460;13.528;2023-02-14T12:20:15;26.03;;;14.90;;
2123;SDS011;1068;52.460;13.528;2023-02-14T12:22:45;18.77;;;14.20;;
2123;SDS011;1068;52.460;13.528;2023-02-14T12:25:13;21.40;;;15.30;;
2123;SDS011;1068;52.460;13.528;2023-02-14T12:27:44;21.43;;;15.47;;
2123;SDS011;1068;52.460;13.528;2023-02-14T12:30:15;20.67;;;15.77;;
2123;SDS011;1068;52.460;13.528;2023-02-14T12:32:44;19.87;;;14.77;;
2123;SDS011;1068;52.460;13.528;2023-02-14T12:35:13;20.50;;;16.43;;
2123;SDS011;1068;52.460;13.528;2023-02-14T12:37:44;22.73;;;16.30;;
2123;SDS011;1068;52.460;13.528;2023-02-14T12:40:17;24.93;;;16.33;;
2123;SDS011;1068;52.460;13.528;2023-02-14T12:42:47;23.43;;;16.63;;
2123;SDS011;1068;52.460;13.528;2023-02-14T12:45:23;23.33;;;15.20;;
2123;SDS011;1068;52.460;13.528;2023-02-14T12:47:53;20.67;;;15.40;;
2123;SDS011;1068;52.460;13.528;2023-02-14T12:50:29;19.33;;;13.30;;
2123;SDS011;1068;52.460;13.528;2023-02-14T12:55:44;23.60;;;15.50;;
2123;SDS011;1068;52.460;13.528;2023-02-14T12:58:17;21.40;;;15.37;;
2123;SDS011;1068;52.460;13.528;2023-02-14T13:00:52;24.70;;;16.17;;
2123;SDS011;1068;52.460;13.528;2023-02-14T13:03:27;28.03;;;15.23;;
2123;SDS011;1068;52.460;13.528;2023-02-14T13:05:59;19.50;;;15.27;;
2123;SDS011;1068;52.460;13.528;2023-02-14T13:08:33;21.80;;;16.50;;
2123;SDS011;1068;52.460;13.528;2023-02-14T13:11:06;23.23;;;15.43;;
2123;SDS011;1068;52.460;13.528;2023-02-14T13:13:38;21.93;;;15.80;;
2123;SDS011;1068;52.460;13.528;2023-02-14T13:16:11;20.93;;;14.90;;
2123;SDS011;1068;52.460;13.528;2023-02-14T13:18:42;19.27;;;14.97;;
2123;SDS011;1068;52.460;13.528;2023-02-14T13:21:13;20.20;;;15.63;;
2123;SDS011;1068;52.460;13.528;2023-02-14T13:23:41;21.50;;;15.30;;
2123;SDS011;1068;52.460;13.528;2023-02-14T13:26:11;25.00;;;17.57;;
2123;SDS011;1068;52.460;13.528;2023-02-14T13:28:39;19.73;;;14.40;;
2123;SDS011;1068;52.460;13.528;2023-02-14T13:31:06;29.47;;;18.47;;
2123;SDS011;1068;52.460;13.528;2023-02-14T13:33:36;18.10;;;14.67;;
2123;SDS011;1068;52.460;13.528;2023-02-14T13:36:05;22.47;;;15.57;;
2123;SDS011;1068;52.460;13.528;2023-02-14T13:38:32;26.73;;;16.73;;
2123;SDS011;1068;52.460;13.528;2023-02-14T13:41:00;21.57;;;15.70;;
2123;SDS011;1068;52.460;13.528;2023-02-14T13:43:45;23.00;;;15.47;;
2123;SDS011;1068;52.460;13.528;2023-02-14T13:46:12;22.23;;;15.83;;
2123;SDS011;1068;52.460;13.528;2023-02-14T13:48:41;24.43;;;17.20;;
2123;SDS011;1068;52.460;13.528;2023-02-14T13:51:11;23.53;;;16.00;;
2123;SDS011;1068;52.460;13.528;2023-02-14T13:53:39;30.40;;;16.70;;
2123;SDS011;1068;52.460;13.528;2023-02-14T13:58:53;23.20;;;16.30;;
2123;SDS011;1068;52.460;13.528;2023-02-14T14:01:28;20.97;;;15.53;;
2123;SDS011;1068;52.460;13.528;2023-02-14T14:03:57;21.27;;;15.43;;
2123;SDS011;1068;52.460;13.528;2023-02-14T14:06:24;23.97;;;17.30;;
2123;SDS011;1068;52.460;13.528;2023-02-14T14:08:52;20.87;;;15.07;;
2123;SDS011;1068;52.460;13.528;2023-02-14T14:11:47;24.00;;;18.90;;
2123;SDS011;1068;52.460;13.528;2023-02-14T14:14:28;24.07;;;15.80;;
2123;SDS011;1068;52.460;13.528;2023-02-14T14:17:00;23.33;;;17.90;;
2123;SDS011;1068;52.460;13.528;2023-02-14T14:19:35;21.10;;;16.07;;
2123;SDS011;1068;52.460;13.528;2023-02-14T14:22:03;21.53;;;16.07;;
2123;SDS011;1068;52.460;13.528;2023-02-14T14:24:31;20.90;;;16.37;;
2123;SDS011;1068;52.460;13.528;2023-02-14T14:26:58;25.80;;;15.70;;
2123;SDS011;1068;52.460;13.528;2023-02-14T14:29:27;22.13;;;15.30;;
2123;SDS011;1068;52.460;13.528;2023-02-14T14:31:55;19.40;;;15.50;;
2123;SDS011;1068;52.460;13.528;2023-02-14T14:34:23;23.33;;;15.00;;
2123;SDS011;1068;52.460;13.528;2023-02-14T14:37:00;23.87;;;16.20;;
2123;SDS011;1068;52.460;13.528;2023-02-14T14:39:28;23.10;;;16.07;;
2123;SDS011;1068;52.460;13.528;2023-02-14T14:41:56;19.37;;;14.90;;
2123;SDS011;1068;52.460;13.528;2023-02-14T14:44:31;25.60;;;16.83;;
2123;SDS011;1068;52.460;13.528;2023-02-14T14:46:58;21.77;;;13.33;;
2123;SDS011;1068;52.460;13.528;2023-02-14T14:49:26;22.33;;;14.60;;
2123;SDS011;1068;52.460;13.528;2023-02-14T14:51:53;23.47;;;14.93;;
2123;SDS011;1068;52.460;13.528;2023-02-14T14:54:22;22.33;;;16.37;;
2123;SDS011;1068;52.460;13.528;2023-02-14T14:56:52;22.57;;;16.37;;
2123;SDS011;1068;52.460;13.528;2023-02-14T14:59:25;18.43;;;14.20;;
2123;SDS011;1068;52.460;13.528;2023-02-14T15:01:53;21.73;;;14.17;;